Terminal Aerodrome Forecast
Issued by NWS Indianapolis, IN

Home | Current Version | Previous Version | Text Only | Print | Product List | Glossary On
Versions: 1 2 3 4 5 6 7 8 9 10 11 12 13 14 15 16 17 18 19 20 21 22 23 24 25 26 27 28 29 30 31 32
505
FTUS43 KIND 202326
TAFIND
TAF
KIND 202326Z 2100/2206 19020G25KT P6SM SCT060 BKN180
     FM210600 21010KT 3SM SHRA OVC020
     FM210700 24009KT 3SM SHRA OVC015
     FM210800 29010KT 4SM SHRA OVC020
     FM211200 34009KT P6SM SHRA OVC008
     FM211700 36008KT P6SM VCSH OVC020=

USA.gov is the U.S. government's official web portal to all federal, state and local government web resources and services.